KEGI/EGI METAR and TAF weather

Enter ICAO airport designator
Station Type Date Time Source
KEGI METAR 2020/03/31 12:56 UTC NOAA

KEGI 311256Z AUTO 22009KT 10SM CLR 24/22 A2980 RMK AO2 SLP090 T02380215 $


Station Type Date Time Source
KEGI Decoded METAR 2020/03/31 12:56 UTC NOAA

Duke Field / Eglin Auxiliary, FL, United States (KEGI) 30-39N 086-31W
Mar 31, 2020 - 08:56 AM EDT / 2020.03.31 1256 UTC
Wind: from the SW (220 degrees) at 10 MPH (9 KT):0
Visibility: 10 mile(s):0
Sky conditions: clear
Temperature: 74.8 F (23.8 C)
Dew Point: 70.7 F (21.5 C)
Relative Humidity: 86%
Pressure (altimeter): 29.8 in. Hg (1009 hPa)
ob: KEGI 311256Z AUTO 22009KT 10SM CLR 24/22 A2980 RMK AO2 SLP090 T02380215
cycle: 13

Station Type Date Time Source
KEGI TAF 2020/03/31 04:58 UTC NOAA

TAF
AMD KEGI 310400Z 3104/0107 27006KT 9999 SCT025 BKN040 BKN250 QNH3001INS
BECMG 3112/3113 24012G18KT 9000 -SHRA VCTS BKN020CB BKN040 OVC250 QNH2968INS
TEMPO 3114/3116 23020G35KT 8000 -TSRA SCT015 OVC025CB
TEMPO 3117/3121 23025G40KT 8000 -TSRA SCT015 OVC025CB
BECMG 3121/3122 35015G25KT 9999 NSW SCT020 QNH2968INS
BECMG 0102/0103 34012G18KT 9999 SCT030 QNH2982INS TX29/3120Z TN18/3111Z LAST NO
AMDS AFT 3104 NEXT 3117

Example: see airport list